createdAt,value
2019-06-07T00:01:08.454Z,6.47
2019-06-07T00:05:13.301Z,6.40
2019-06-07T00:09:18.655Z,6.63
2019-06-07T00:13:20.395Z,6.67
2019-06-07T00:17:22.678Z,6.50
2019-06-07T00:22:11.994Z,7.57
2019-06-07T00:25:29.111Z,7.43
2019-06-07T00:29:31.695Z,7.10
2019-06-07T00:33:33.927Z,6.63
2019-06-07T00:37:36.201Z,6.93
2019-06-07T00:41:39.022Z,6.60
2019-06-07T00:45:41.516Z,7.87
2019-06-07T00:49:43.677Z,6.40
2019-06-07T00:53:46.243Z,7.10
2019-06-07T00:57:48.447Z,6.43
2019-06-07T01:01:51.133Z,6.47
2019-06-07T01:05:53.554Z,6.77
2019-06-07T01:09:55.894Z,6.97
2019-06-07T01:13:58.293Z,7.00
2019-06-07T01:18:33.782Z,6.70
2019-06-07T01:22:04.833Z,6.90
2019-06-07T01:26:07.282Z,7.37
2019-06-07T01:30:11.114Z,6.90
2019-06-07T01:34:13.375Z,7.20
2019-06-07T01:38:17.216Z,7.73
2019-06-07T01:42:20.379Z,6.93
2019-06-07T01:46:26.663Z,7.13
2019-06-07T01:50:27.325Z,7.17
2019-06-07T01:58:33.543Z,7.10
2019-06-07T02:02:35.804Z,7.17
2019-06-07T02:06:38.128Z,7.27
2019-06-07T02:10:40.277Z,7.07
2019-06-07T02:14:42.634Z,7.20
2019-06-07T02:19:01.036Z,6.90
2019-06-07T02:22:48.933Z,6.87
2019-06-07T02:26:51.241Z,7.80
2019-06-07T02:31:00.058Z,7.53
2019-06-07T02:34:58.294Z,7.13
2019-06-07T02:39:00.524Z,7.30
2019-06-07T02:43:04.177Z,7.53
2019-06-07T02:47:06.388Z,7.33
2019-06-07T02:51:08.534Z,7.33
2019-06-07T02:55:11.207Z,7.63
2019-06-07T02:59:13.786Z,7.70
2019-06-07T03:03:16.651Z,7.90
2019-06-07T03:07:19.533Z,7.37
2019-06-07T03:11:24.265Z,7.37
2019-06-07T03:15:35.525Z,7.60
2019-06-07T03:19:39.476Z,7.90
2019-06-07T03:23:44.114Z,8.10
2019-06-07T03:27:49.966Z,7.47
2019-06-07T03:31:50.366Z,7.90
2019-06-07T03:35:52.591Z,7.70
2019-06-07T03:39:54.735Z,7.87
2019-06-07T03:43:57.364Z,8.00
2019-06-07T03:47:59.724Z,8.20
2019-06-07T03:52:01.844Z,7.80
2019-06-07T03:56:04.289Z,7.50
2019-06-07T04:00:07.476Z,7.77
2019-06-07T04:04:09.566Z,7.90
2019-06-07T04:08:11.770Z,8.03
2019-06-07T04:12:13.899Z,8.63
2019-06-07T04:16:16.140Z,8.23
2019-06-07T04:20:18.356Z,8.40
2019-06-07T04:24:20.615Z,8.27
2019-06-07T04:28:22.646Z,8.10
2019-06-07T04:32:26.382Z,9.47
2019-06-07T04:36:47.553Z,7.90
2019-06-07T04:40:36.875Z,8.47
2019-06-07T04:44:42.626Z,8.10
2019-06-07T04:48:46.561Z,8.93
2019-06-07T04:52:48.832Z,8.77
2019-06-07T04:56:52.162Z,8.37
2019-06-07T05:01:02.592Z,9.03
2019-06-07T05:04:58.342Z,9.10
2019-06-07T05:09:00.336Z,9.07
2019-06-07T05:13:02.567Z,9.50
2019-06-07T05:17:04.806Z,8.93
2019-06-07T05:21:08.798Z,9.03
2019-06-07T05:25:11.031Z,8.93
2019-06-07T05:29:13.297Z,9.73
2019-06-07T05:33:16.453Z,9.30
2019-06-07T05:37:18.894Z,8.70
2019-06-07T05:41:21.003Z,9.23
2019-06-07T05:45:32.455Z,8.37
2019-06-07T05:49:37.909Z,9.10
2019-06-07T05:53:40.445Z,8.43
2019-06-07T05:57:48.560Z,9.03
2019-06-07T06:01:59.002Z,8.37
2019-06-07T06:05:55.258Z,9.03
2019-06-07T06:09:54.332Z,7.90
2019-06-07T06:14:06.606Z,8.17
2019-06-07T06:18:00.406Z,8.33
2019-06-07T06:22:02.438Z,7.40
2019-06-07T06:26:04.726Z,8.20
2019-06-07T06:30:08.372Z,7.70
2019-06-07T06:34:10.572Z,7.05
2019-06-07T06:38:12.705Z,6.83
2019-06-07T06:42:14.977Z,7.97
2019-06-07T06:46:37.483Z,7.62
2019-06-07T06:50:21.327Z,7.62
2019-06-07T06:54:40.325Z,7.62
2019-06-07T06:58:27.567Z,7.42
2019-06-07T07:02:29.930Z,6.80
2019-06-07T07:06:32.290Z,6.10
2019-06-07T07:10:43.109Z,6.60
2019-06-07T07:14:47.893Z,6.20
2019-06-07T07:18:52.904Z,6.22
2019-06-07T07:22:57.178Z,6.17
2019-06-07T07:26:58.691Z,6.67
2019-06-07T07:31:00.977Z,5.53
2019-06-07T07:35:03.168Z,6.33
2019-06-07T07:39:06.884Z,6.90
2019-06-07T07:43:09.161Z,5.97
2019-06-07T07:47:11.543Z,5.85
2019-06-07T07:51:13.851Z,6.05
2019-06-07T07:55:16.266Z,5.35
2019-06-07T07:59:18.497Z,6.35
2019-06-07T08:03:21.024Z,5.40
2019-06-07T08:07:23.385Z,4.72
2019-06-07T08:11:26.548Z,4.70
2019-06-07T08:15:28.902Z,5.60
2019-06-07T08:19:31.252Z,5.25
2019-06-07T08:23:33.424Z,5.22
2019-06-07T08:27:35.728Z,5.35
2019-06-07T08:31:37.987Z,5.62
2019-06-07T08:36:05.586Z,5.28
2019-06-07T08:39:44.409Z,5.22
2019-06-07T08:43:46.628Z,5.25
2019-06-07T08:47:56.589Z,4.80
2019-06-07T08:51:57.715Z,5.17
2019-06-07T08:56:02.300Z,5.25
2019-06-07T09:00:07.167Z,5.08
2019-06-07T09:04:10.510Z,4.95
2019-06-07T09:08:28.530Z,5.15
2019-06-07T09:12:13.095Z,5.05
2019-06-07T09:16:15.318Z,4.90
2019-06-07T09:20:35.660Z,5.50
2019-06-07T09:24:23.149Z,5.40
2019-06-07T09:28:25.419Z,4.85
2019-06-07T09:32:27.624Z,4.80
2019-06-07T09:36:29.837Z,5.12
2019-06-07T09:40:32.293Z,5.30
2019-06-07T09:44:34.411Z,5.72
2019-06-07T09:52:57.791Z,5.50
2019-06-07T09:56:46.326Z,5.85
2019-06-07T10:00:48.820Z,6.25
2019-06-07T10:04:51.176Z,6.17
2019-06-07T10:12:57.308Z,6.28
2019-06-07T10:17:00.820Z,6.03
2019-06-07T10:21:03.780Z,5.90
2019-06-07T10:25:08.324Z,5.85
2019-06-07T10:29:10.828Z,6.42
2019-06-07T10:33:13.064Z,7.15
2019-06-07T10:37:15.876Z,6.15
2019-06-07T10:41:18.115Z,6.05
2019-06-07T10:45:20.502Z,7.20
2019-06-07T10:49:22.724Z,7.40
2019-06-07T10:53:24.828Z,6.60
2019-06-07T10:57:27.185Z,6.90
2019-06-07T11:01:29.375Z,6.62
2019-06-07T11:05:31.493Z,6.78
2019-06-07T11:09:34.083Z,7.00
2019-06-07T11:13:36.368Z,6.72
2019-06-07T11:17:38.588Z,7.08
2019-06-07T11:21:40.634Z,6.83
2019-06-07T11:25:42.971Z,6.90
2019-06-07T11:29:45.085Z,6.83
2019-06-07T11:33:47.364Z,6.72
2019-06-07T11:37:49.648Z,5.90
2019-06-07T11:41:51.762Z,6.35
2019-06-07T11:45:54.032Z,6.00
2019-06-07T11:49:56.337Z,6.85
2019-06-07T11:53:58.504Z,6.75
2019-06-07T11:58:00.809Z,6.72
2019-06-07T12:02:03.143Z,6.58
2019-06-07T12:06:05.387Z,7.03
2019-06-07T12:10:08.544Z,6.70
2019-06-07T12:14:12.900Z,6.33
2019-06-07T12:18:15.220Z,6.10
2019-06-07T12:22:17.960Z,6.37
2019-06-07T12:26:20.688Z,6.42
2019-06-07T12:30:27.775Z,6.15
2019-06-07T12:34:27.023Z,6.28
2019-06-07T12:38:30.191Z,5.78
2019-06-07T12:42:32.616Z,5.80
2019-06-07T12:46:36.021Z,5.25
2019-06-07T12:50:43.126Z,5.75
2019-06-07T12:54:42.341Z,5.12
2019-06-07T12:58:44.532Z,6.05
2019-06-07T13:02:46.720Z,6.20
2019-06-07T13:06:48.978Z,5.62
2019-06-07T13:10:52.224Z,4.47
2019-06-07T13:14:54.561Z,3.50
2019-06-07T13:18:56.966Z,4.85
2019-06-07T13:22:59.225Z,4.78
2019-06-07T13:27:01.451Z,4.55
2019-06-07T13:31:03.602Z,5.10
2019-06-07T13:35:06.151Z,4.95
2019-06-07T13:39:08.954Z,5.55
2019-06-07T13:43:11.282Z,12.03
2019-06-07T13:47:13.428Z,5.67
2019-06-07T13:51:15.708Z,5.65
2019-06-07T13:55:19.774Z,5.42
2019-06-07T13:59:22.361Z,5.60
2019-06-07T14:03:29.305Z,6.03
2019-06-07T14:07:29.958Z,5.62
2019-06-07T14:11:49.386Z,5.03
2019-06-07T14:15:37.409Z,5.08
2019-06-07T14:19:39.567Z,5.28
2019-06-07T14:23:48.656Z,5.12
2019-06-07T14:27:45.641Z,6.70
2019-06-07T14:31:47.866Z,6.17
2019-06-07T14:35:50.015Z,6.53
2019-06-07T14:39:52.244Z,6.20
2019-06-07T14:43:54.377Z,7.20
2019-06-07T14:47:56.374Z,6.78
2019-06-07T14:51:58.390Z,6.45
2019-06-07T14:56:00.567Z,7.97
2019-06-07T15:00:10.383Z,6.80
2019-06-07T15:04:06.443Z,7.12
2019-06-07T15:08:08.593Z,6.75
2019-06-07T15:12:24.193Z,7.05
2019-06-07T15:16:14.416Z,7.05
2019-06-07T15:20:16.646Z,7.20
2019-06-07T15:24:18.571Z,6.80
2019-06-07T15:28:20.636Z,6.53
2019-06-07T15:32:23.575Z,6.92
2019-06-07T15:36:26.023Z,6.72
2019-06-07T15:40:29.028Z,6.85
2019-06-07T15:44:31.224Z,6.58
2019-06-07T15:48:33.988Z,6.72
2019-06-07T15:52:38.090Z,5.10
2019-06-07T15:56:41.326Z,4.97
2019-06-07T16:00:43.422Z,5.33
2019-06-07T16:04:45.329Z,4.40
2019-06-07T16:08:47.286Z,4.50
2019-06-07T16:12:59.495Z,4.62
2019-06-07T16:16:52.734Z,4.50
2019-06-07T16:20:54.840Z,4.47
2019-06-07T16:24:56.933Z,3.27
2019-06-07T16:28:59.140Z,4.00
2019-06-07T16:33:01.121Z,3.65
2019-06-07T16:37:03.149Z,3.30
2019-06-07T16:41:05.640Z,3.37
2019-06-07T16:45:08.950Z,4.22
2019-06-07T16:49:11.032Z,3.67
2019-06-07T16:53:13.081Z,3.20
2019-06-07T16:57:15.125Z,2.83
2019-06-07T17:01:16.960Z,2.97
2019-06-07T17:05:19.248Z,3.20
2019-06-07T17:09:21.321Z,2.87
2019-06-07T17:13:32.913Z,2.80
2019-06-07T17:17:27.371Z,2.73
2019-06-07T17:21:32.015Z,3.20
2019-06-07T17:25:33.845Z,2.67
2019-06-07T17:29:36.226Z,2.80
2019-06-07T17:33:38.166Z,2.97
2019-06-07T17:37:42.264Z,2.93
2019-06-07T17:41:56.180Z,2.70
2019-06-07T17:45:47.623Z,3.30
2019-06-07T17:49:50.044Z,3.53
2019-06-07T17:53:52.129Z,2.97
2019-06-07T17:57:53.947Z,3.47
2019-06-07T18:02:13.608Z,3.40
2019-06-07T18:06:01.383Z,3.63
2019-06-07T18:10:06.554Z,3.70
2019-06-07T18:14:11.124Z,3.70
2019-06-07T18:18:14.945Z,3.37
2019-06-07T18:22:17.329Z,3.17
2019-06-07T18:26:19.555Z,3.23
2019-06-07T18:30:21.902Z,3.00
2019-06-07T18:34:24.327Z,3.30
2019-06-07T18:38:26.692Z,3.03
2019-06-07T18:42:29.115Z,3.53
2019-06-07T18:46:31.538Z,3.50
2019-06-07T18:50:33.884Z,3.53
2019-06-07T18:54:36.103Z,3.63
2019-06-07T18:58:38.668Z,4.00
2019-06-07T19:02:44.253Z,3.73
2019-06-07T19:06:46.564Z,4.17
2019-06-07T19:10:50.707Z,4.30
2019-06-07T19:14:53.331Z,3.73
2019-06-07T19:18:55.884Z,4.03
2019-06-07T19:23:00.553Z,4.10
2019-06-07T19:27:02.861Z,4.13
2019-06-07T19:31:06.312Z,4.00
2019-06-07T19:35:09.707Z,4.47
2019-06-07T19:39:11.991Z,5.10
2019-06-07T19:43:14.237Z,4.97
2019-06-07T19:47:16.648Z,4.50
2019-06-07T19:51:20.410Z,5.37
2019-06-07T19:55:22.964Z,5.20
2019-06-07T19:59:25.491Z,5.20
2019-06-07T20:03:28.738Z,5.30
2019-06-07T20:07:31.035Z,5.00
2019-06-07T20:11:33.348Z,5.10
2019-06-07T20:15:35.655Z,5.30
2019-06-07T20:19:37.985Z,5.00
2019-06-07T20:23:40.362Z,4.90
2019-06-07T20:27:42.672Z,5.20
2019-06-07T20:31:44.807Z,5.07
2019-06-07T20:35:47.107Z,4.90
2019-06-07T20:39:49.276Z,5.00
2019-06-07T20:43:51.658Z,5.07
2019-06-07T20:47:53.815Z,6.17
2019-06-07T20:51:56.142Z,4.57
2019-06-07T20:55:58.493Z,5.20
2019-06-07T21:00:02.584Z,5.23
2019-06-07T21:04:07.326Z,5.30
2019-06-07T21:08:12.663Z,5.30
2019-06-07T21:12:13.430Z,5.30
2019-06-07T21:16:15.920Z,5.30
2019-06-07T21:20:18.172Z,5.80
2019-06-07T21:24:20.439Z,5.80
2019-06-07T21:28:22.650Z,5.97
2019-06-07T21:32:24.976Z,5.67
2019-06-07T21:36:27.191Z,5.30
2019-06-07T21:40:29.463Z,5.50
2019-06-07T21:44:31.698Z,5.47
2019-06-07T21:48:34.118Z,5.63
2019-06-07T21:52:36.270Z,5.90
2019-06-07T21:56:38.499Z,5.47
2019-06-07T22:01:09.972Z,5.40
2019-06-07T22:05:14.801Z,5.53
2019-06-07T22:09:17.150Z,5.63
2019-06-07T22:13:19.516Z,6.13
2019-06-07T22:17:21.697Z,6.00
2019-06-07T22:21:25.149Z,6.33
2019-06-07T22:25:28.806Z,5.80
2019-06-07T22:29:31.166Z,6.33
2019-06-07T22:33:33.501Z,6.43
2019-06-07T22:37:35.713Z,6.70
2019-06-07T22:41:38.039Z,6.60
2019-06-07T22:45:40.897Z,6.37
2019-06-07T22:49:43.245Z,6.20
2019-06-07T22:53:48.327Z,6.90
2019-06-07T22:57:58.366Z,6.80
2019-06-07T23:02:00.698Z,7.07
2019-06-07T23:06:02.915Z,7.10
2019-06-07T23:10:05.850Z,8.03
2019-06-07T23:14:09.179Z,7.50
2019-06-07T23:18:11.478Z,7.40
2019-06-07T23:22:13.886Z,7.23
2019-06-07T23:26:16.412Z,7.60
2019-06-07T23:30:21.694Z,7.73
2019-06-07T23:34:24.242Z,7.87
2019-06-07T23:38:26.816Z,7.30
2019-06-07T23:42:29.325Z,8.27
2019-06-07T23:46:31.429Z,7.50
2019-06-07T23:50:33.648Z,7.73
2019-06-07T23:54:36.008Z,8.50
2019-06-07T23:58:38.357Z,8.80
